createdAt,value
2023-05-03T00:00:22.734Z,7.95
2023-05-03T00:01:24.916Z,7.84
2023-05-03T00:02:27.283Z,7.72
2023-05-03T00:03:29.562Z,7.74
2023-05-03T00:04:31.869Z,7.67
2023-05-03T00:05:34.170Z,7.65
2023-05-03T00:06:36.358Z,7.66
2023-05-03T00:07:40.358Z,7.51
2023-05-03T00:08:43.193Z,7.44
2023-05-03T00:09:45.910Z,7.35
2023-05-03T00:10:48.061Z,7.43
2023-05-03T00:11:50.321Z,7.50
2023-05-03T00:12:52.593Z,7.66
2023-05-03T00:13:54.724Z,7.78
2023-05-03T00:14:56.847Z,7.61
2023-05-03T00:15:59.407Z,7.62
2023-05-03T00:17:01.703Z,7.70
2023-05-03T00:18:03.996Z,7.75
2023-05-03T00:19:07.791Z,7.73
2023-05-03T00:20:13.064Z,7.75
2023-05-03T00:21:15.339Z,7.76
2023-05-03T00:22:17.915Z,7.76
2023-05-03T00:23:20.312Z,7.81
2023-05-03T00:24:22.557Z,7.81
2023-05-03T00:25:24.767Z,7.77
2023-05-03T00:26:27.841Z,7.74
2023-05-03T00:27:30.142Z,7.67
2023-05-03T00:28:32.329Z,7.71
2023-05-03T00:29:34.582Z,7.80
2023-05-03T00:30:36.793Z,7.70
2023-05-03T00:31:39.141Z,7.71
2023-05-03T00:32:41.522Z,7.67
2023-05-03T00:33:43.860Z,7.62
2023-05-03T00:34:46.025Z,7.54
2023-05-03T00:35:48.252Z,7.56
2023-05-03T00:36:51.160Z,7.52
2023-05-03T00:37:53.400Z,7.40
2023-05-03T00:38:55.601Z,7.37
2023-05-03T00:39:57.873Z,7.40
2023-05-03T00:41:00.048Z,7.37
2023-05-03T00:42:04.024Z,7.29
2023-05-03T00:43:06.280Z,7.31
2023-05-03T00:44:08.579Z,7.32
2023-05-03T00:45:11.072Z,7.32
2023-05-03T00:46:17.433Z,7.34
2023-05-03T00:47:20.848Z,7.31
2023-05-03T00:48:23.315Z,7.28
2023-05-03T00:49:25.751Z,7.16
2023-05-03T00:50:28.706Z,7.18
2023-05-03T00:51:30.879Z,7.22
2023-05-03T00:52:33.733Z,7.13
2023-05-03T00:53:36.271Z,7.23
2023-05-03T00:54:39.496Z,7.32
2023-05-03T00:55:42.157Z,7.39
2023-05-03T00:56:51.558Z,7.47
2023-05-03T00:57:54.841Z,7.51
2023-05-03T00:58:57.064Z,7.49
2023-05-03T01:00:00.024Z,7.50
2023-05-03T01:01:02.554Z,7.52
2023-05-03T01:02:04.842Z,7.50
2023-05-03T01:03:07.426Z,7.43
2023-05-03T01:04:10.333Z,7.40
2023-05-03T01:05:12.719Z,7.36
2023-05-03T01:06:38.897Z,7.30
2023-05-03T01:08:11.334Z,7.22
2023-05-03T01:09:39.394Z,7.16
2023-05-03T01:10:57.921Z,6.95
2023-05-03T01:12:08.976Z,6.87
2023-05-03T01:13:42.601Z,6.87
2023-05-03T01:14:50.290Z,6.93
2023-05-03T01:16:14.434Z,6.88
2023-05-03T01:17:20.050Z,6.82
2023-05-03T01:18:30.432Z,6.66
2023-05-03T01:19:37.375Z,6.70
2023-05-03T01:20:45.162Z,6.72
2023-05-03T01:21:51.465Z,6.85
2023-05-03T01:22:59.330Z,7.03
2023-05-03T01:24:07.617Z,6.87
2023-05-03T01:25:11.838Z,6.57
2023-05-03T01:26:24.766Z,6.55
2023-05-03T01:27:26.883Z,6.51
2023-05-03T01:28:29.035Z,6.47
2023-05-03T01:29:31.245Z,6.52
2023-05-03T01:30:35.013Z,6.58
2023-05-03T01:31:57.659Z,6.52
2023-05-03T01:33:05.971Z,6.47
2023-05-03T01:34:21.742Z,6.33
2023-05-03T01:35:37.304Z,6.30
2023-05-03T01:36:42.617Z,6.29
2023-05-03T01:37:44.828Z,6.24
2023-05-03T01:38:48.665Z,6.24
2023-05-03T01:39:59.858Z,6.35
2023-05-03T01:41:06.307Z,6.50
2023-05-03T01:42:08.523Z,6.44
2023-05-03T01:43:17.066Z,6.46
2023-05-03T01:44:21.178Z,6.41
2023-05-03T01:45:23.442Z,6.33
2023-05-03T01:46:25.808Z,6.30
2023-05-03T01:47:28.190Z,6.18
2023-05-03T01:48:30.445Z,6.24
2023-05-03T01:49:33.587Z,6.30
2023-05-03T01:50:35.895Z,6.26
2023-05-03T01:51:38.090Z,6.28
2023-05-03T01:52:40.416Z,6.14
2023-05-03T01:53:42.618Z,6.26
2023-05-03T01:54:44.858Z,6.41
2023-05-03T01:55:47.929Z,6.41
2023-05-03T01:56:50.257Z,6.38
2023-05-03T01:57:52.492Z,6.36
2023-05-03T01:58:54.683Z,6.35
2023-05-03T01:59:56.958Z,6.43
2023-05-03T02:02:09.029Z,6.25
2023-05-03T02:03:11.359Z,6.31
2023-05-03T02:04:14.012Z,6.29
2023-05-03T02:05:16.291Z,6.23
2023-05-03T02:06:18.586Z,6.17
2023-05-03T02:07:20.850Z,6.23
2023-05-03T02:08:23.056Z,6.16
2023-05-03T02:09:25.787Z,6.05
2023-05-03T02:10:27.966Z,6.03
2023-05-03T02:11:31.294Z,5.91
2023-05-03T02:12:33.584Z,5.92
2023-05-03T02:13:38.549Z,5.83
2023-05-03T02:14:41.141Z,5.85
2023-05-03T02:15:44.600Z,5.99
2023-05-03T02:16:46.914Z,6.13
2023-05-03T02:17:49.592Z,6.21
2023-05-03T02:18:53.675Z,6.20
2023-05-03T02:19:56.086Z,6.14
2023-05-03T02:20:58.273Z,6.08
2023-05-03T02:22:00.574Z,6.16
2023-05-03T02:23:02.997Z,6.21
2023-05-03T02:24:05.817Z,6.29
2023-05-03T02:25:08.265Z,6.40
2023-05-03T02:26:10.592Z,6.38
2023-05-03T02:27:13.630Z,6.47
2023-05-03T02:28:15.782Z,6.38
2023-05-03T02:29:18.073Z,6.12
2023-05-03T02:30:21.030Z,6.11
2023-05-03T02:31:23.622Z,6.19
2023-05-03T02:32:25.940Z,6.22
2023-05-03T02:33:28.309Z,6.26
2023-05-03T02:34:30.818Z,6.29
2023-05-03T02:35:33.583Z,6.26
2023-05-03T02:36:35.836Z,6.22
2023-05-03T02:37:37.968Z,6.25
2023-05-03T02:38:44.710Z,6.31
2023-05-03T02:39:47.604Z,6.27
2023-05-03T02:40:51.304Z,6.31
2023-05-03T02:41:53.511Z,6.28
2023-05-03T02:42:55.697Z,6.27
2023-05-03T02:44:02.451Z,6.27
2023-05-03T02:45:04.929Z,6.13
2023-05-03T02:46:07.353Z,6.15
2023-05-03T02:47:10.371Z,6.18
2023-05-03T02:48:16.484Z,6.20
2023-05-03T02:49:18.899Z,6.23
2023-05-03T02:50:21.033Z,6.29
2023-05-03T02:51:24.233Z,6.34
2023-05-03T02:52:26.372Z,6.23
2023-05-03T02:53:28.621Z,6.18
2023-05-03T02:54:34.518Z,6.06
2023-05-03T02:55:43.644Z,5.90
2023-05-03T02:56:45.860Z,5.87
2023-05-03T02:57:48.061Z,5.93
2023-05-03T02:58:54.574Z,5.95
2023-05-03T02:59:58.496Z,5.88
2023-05-03T03:01:01.659Z,5.85
2023-05-03T03:02:05.689Z,5.74
2023-05-03T03:03:09.422Z,5.59
2023-05-03T03:04:11.709Z,5.59
2023-05-03T03:05:14.350Z,5.54
2023-05-03T03:06:21.807Z,5.49
2023-05-03T03:07:24.019Z,5.56
2023-05-03T03:08:30.196Z,5.60
2023-05-03T03:09:36.108Z,5.60
2023-05-03T03:10:38.478Z,5.58
2023-05-03T03:11:41.088Z,5.67
2023-05-03T03:12:44.085Z,5.50
2023-05-03T03:13:53.432Z,5.50
2023-05-03T03:14:56.756Z,5.54
2023-05-03T03:15:59.543Z,5.65
2023-05-03T03:17:03.266Z,5.72
2023-05-03T03:18:05.761Z,5.70
2023-05-03T03:19:08.353Z,5.75
2023-05-03T03:20:13.803Z,5.72
2023-05-03T03:21:19.595Z,5.75
2023-05-03T03:22:21.735Z,5.83
2023-05-03T03:23:23.863Z,5.86
2023-05-03T03:24:26.751Z,5.96
2023-05-03T03:25:29.273Z,6.02
2023-05-03T03:26:33.207Z,6.01
2023-05-03T03:27:37.572Z,5.89
2023-05-03T03:28:41.821Z,5.92
2023-05-03T03:29:46.666Z,5.97
2023-05-03T03:30:49.485Z,6.02
2023-05-03T03:31:57.789Z,6.02
2023-05-03T03:33:00.094Z,5.99
2023-05-03T03:34:09.341Z,5.93
2023-05-03T03:35:11.981Z,5.82
2023-05-03T03:36:14.596Z,5.82
2023-05-03T03:37:21.868Z,5.73
2023-05-03T03:38:24.101Z,5.70
2023-05-03T03:39:32.870Z,5.65
2023-05-03T03:40:35.149Z,5.61
2023-05-03T03:41:37.508Z,5.68
2023-05-03T03:42:40.353Z,5.63
2023-05-03T03:43:42.575Z,5.64
2023-05-03T03:44:50.403Z,5.60
2023-05-03T03:45:52.665Z,5.50
2023-05-03T03:46:54.930Z,5.48
2023-05-03T03:47:58.106Z,5.48
2023-05-03T03:49:00.966Z,5.46
2023-05-03T03:50:06.402Z,5.47
2023-05-03T03:51:10.020Z,5.50
2023-05-03T03:52:18.159Z,5.44
2023-05-03T03:53:20.619Z,5.34
2023-05-03T03:54:22.968Z,5.28
2023-05-03T03:55:26.235Z,5.27
2023-05-03T03:56:30.788Z,5.25
2023-05-03T03:57:33.510Z,5.26
2023-05-03T03:58:36.095Z,5.23
2023-05-03T03:59:41.022Z,5.09
2023-05-03T04:00:43.753Z,5.09
2023-05-03T04:01:50.784Z,5.29
2023-05-03T04:02:53.308Z,5.29
2023-05-03T04:03:56.197Z,5.29
2023-05-03T04:04:58.808Z,5.38
2023-05-03T04:06:01.224Z,5.19
2023-05-03T04:07:04.610Z,5.15
2023-05-03T04:08:06.836Z,5.14
2023-05-03T04:09:11.042Z,5.10
2023-05-03T04:10:13.933Z,5.21
2023-05-03T04:11:16.763Z,5.29
2023-05-03T04:12:24.746Z,5.26
2023-05-03T04:13:27.053Z,5.22
2023-05-03T04:14:31.168Z,5.12
2023-05-03T04:15:33.745Z,5.12
2023-05-03T04:16:37.984Z,5.17
2023-05-03T04:17:41.710Z,5.17
2023-05-03T04:18:46.351Z,5.06
2023-05-03T04:19:49.185Z,5.15
2023-05-03T04:20:52.189Z,5.19
2023-05-03T04:21:54.432Z,5.54
2023-05-03T04:22:56.912Z,5.80
2023-05-03T04:24:04.670Z,6.34
2023-05-03T04:25:10.907Z,6.89
2023-05-03T04:26:27.516Z,7.34
2023-05-03T04:27:35.329Z,7.75
2023-05-03T04:28:38.898Z,8.43
2023-05-03T04:29:42.097Z,8.99
2023-05-03T04:30:46.811Z,9.38
2023-05-03T04:31:51.332Z,9.81
2023-05-03T04:32:54.369Z,10.25
2023-05-03T04:33:58.652Z,10.57
2023-05-03T04:35:02.147Z,10.95
2023-05-03T04:36:04.486Z,10.84
2023-05-03T04:37:08.830Z,11.17
2023-05-03T04:38:11.856Z,11.43
2023-05-03T04:39:15.290Z,11.89
2023-05-03T04:40:19.688Z,12.05
2023-05-03T04:41:27.563Z,12.22
2023-05-03T04:42:30.277Z,12.41
2023-05-03T04:43:32.876Z,12.69
2023-05-03T04:44:35.098Z,13.18
2023-05-03T04:45:37.701Z,13.74
2023-05-03T04:46:43.290Z,14.36
2023-05-03T04:47:46.201Z,14.62
2023-05-03T04:48:48.454Z,14.95
2023-05-03T04:49:51.526Z,14.94
2023-05-03T04:50:53.807Z,15.08
2023-05-03T04:51:57.885Z,15.49
2023-05-03T04:53:01.232Z,15.58
2023-05-03T04:54:05.271Z,16.16
2023-05-03T04:55:07.760Z,16.35
2023-05-03T04:56:10.937Z,16.63
2023-05-03T04:57:15.884Z,16.51
2023-05-03T04:58:18.081Z,16.82
2023-05-03T04:59:21.060Z,16.88
2023-05-03T05:00:23.687Z,17.20
2023-05-03T05:01:32.706Z,17.40
2023-05-03T05:02:38.152Z,17.77
2023-05-03T05:03:41.041Z,18.11
2023-05-03T05:04:49.795Z,18.39
2023-05-03T05:05:52.199Z,18.50
2023-05-03T05:06:55.175Z,18.69
2023-05-03T05:08:02.224Z,18.86
2023-05-03T05:09:22.172Z,18.95
2023-05-03T05:10:26.002Z,18.80
2023-05-03T05:11:31.303Z,18.90
2023-05-03T05:12:34.115Z,18.91
2023-05-03T05:13:39.557Z,19.06
2023-05-03T05:14:41.788Z,19.29
2023-05-03T05:15:44.685Z,19.04
2023-05-03T05:16:48.444Z,19.33
2023-05-03T05:17:51.680Z,19.40
2023-05-03T05:18:55.375Z,19.28
2023-05-03T05:20:01.260Z,19.60
2023-05-03T05:21:04.976Z,19.06
2023-05-03T05:22:08.964Z,18.79
2023-05-03T05:23:20.098Z,18.62
2023-05-03T05:24:23.345Z,18.63
2023-05-03T05:25:26.217Z,18.55
2023-05-03T05:26:28.738Z,18.05
2023-05-03T05:27:31.251Z,17.50
2023-05-03T05:28:34.845Z,17.84
2023-05-03T05:29:37.154Z,19.05
2023-05-03T05:30:39.410Z,18.91
2023-05-03T05:31:42.590Z,18.61
2023-05-03T05:32:45.350Z,18.48
2023-05-03T05:33:48.634Z,19.72
2023-05-03T05:34:55.411Z,20.00
2023-05-03T05:36:00.104Z,17.66
2023-05-03T05:37:02.791Z,16.81
2023-05-03T05:38:05.021Z,18.38
2023-05-03T05:39:08.440Z,16.51
2023-05-03T05:40:12.406Z,17.12
2023-05-03T05:41:21.055Z,16.83
2023-05-03T05:42:23.354Z,18.15
2023-05-03T05:43:25.651Z,17.61
2023-05-03T05:44:28.290Z,17.23
2023-05-03T05:45:31.226Z,16.30
2023-05-03T05:46:34.217Z,16.56
2023-05-03T05:47:36.484Z,16.22
2023-05-03T05:48:40.001Z,17.58
2023-05-03T05:49:42.564Z,16.48
2023-05-03T05:50:46.090Z,16.56
2023-05-03T05:51:49.657Z,16.52
2023-05-03T05:52:55.105Z,16.31
2023-05-03T05:54:00.059Z,17.09
2023-05-03T05:55:02.298Z,17.85
2023-05-03T05:56:06.114Z,17.39
2023-05-03T05:57:09.149Z,16.23
2023-05-03T05:58:13.137Z,15.90
2023-05-03T05:59:21.038Z,15.91
2023-05-03T06:00:24.286Z,15.39
2023-05-03T06:01:26.971Z,16.87
2023-05-03T06:02:29.728Z,16.57
2023-05-03T06:03:33.335Z,17.42
2023-05-03T06:04:38.086Z,18.19
2023-05-03T06:05:40.830Z,17.46
2023-05-03T06:06:45.209Z,17.46
2023-05-03T06:07:48.322Z,17.48
2023-05-03T06:08:51.405Z,18.06
2023-05-03T06:09:53.617Z,17.68
2023-05-03T06:10:56.115Z,17.65
2023-05-03T06:11:59.500Z,18.40
2023-05-03T06:13:03.808Z,17.23
2023-05-03T06:14:09.438Z,18.07
2023-05-03T06:15:13.330Z,18.74
2023-05-03T06:16:16.322Z,19.05
2023-05-03T06:17:19.378Z,17.94
2023-05-03T06:18:21.603Z,18.91
2023-05-03T06:19:24.658Z,18.87
2023-05-03T06:20:27.648Z,17.30
2023-05-03T06:21:31.175Z,16.77
2023-05-03T06:22:33.858Z,17.78
2023-05-03T06:23:37.677Z,18.14
2023-05-03T06:24:40.047Z,17.21
2023-05-03T06:25:42.270Z,17.93
2023-05-03T06:26:44.890Z,19.62
2023-05-03T06:27:47.190Z,19.41
2023-05-03T06:28:50.424Z,19.66
2023-05-03T06:29:52.860Z,16.97
2023-05-03T06:30:55.180Z,16.78
2023-05-03T06:31:57.716Z,16.48
2023-05-03T06:33:00.092Z,15.88
2023-05-03T06:34:03.395Z,17.15
2023-05-03T06:35:06.110Z,16.26
2023-05-03T06:36:09.218Z,16.00
2023-05-03T06:37:12.693Z,17.25
2023-05-03T06:38:15.012Z,18.03
2023-05-03T06:39:18.053Z,18.00
2023-05-03T06:40:22.721Z,16.81
2023-05-03T06:41:24.971Z,15.37
2023-05-03T06:42:27.746Z,16.48
2023-05-03T06:43:41.984Z,15.99
2023-05-03T06:44:44.197Z,16.87
2023-05-03T06:45:52.393Z,17.92
2023-05-03T06:46:55.133Z,17.78
2023-05-03T06:47:57.363Z,18.31
2023-05-03T06:48:59.975Z,18.03
2023-05-03T06:50:02.795Z,17.82
2023-05-03T06:51:05.347Z,17.11
2023-05-03T06:52:09.456Z,18.24
2023-05-03T06:53:13.918Z,18.57
2023-05-03T06:54:16.118Z,18.02
2023-05-03T06:55:18.828Z,16.36
2023-05-03T06:56:21.490Z,15.59
2023-05-03T06:57:24.710Z,14.45
2023-05-03T06:58:27.751Z,13.99
2023-05-03T06:59:29.967Z,13.52
2023-05-03T07:00:32.240Z,12.91
2023-05-03T07:01:34.894Z,12.29
2023-05-03T07:02:37.373Z,11.72
2023-05-03T07:03:41.813Z,11.59
2023-05-03T07:04:44.348Z,11.97
2023-05-03T07:05:47.237Z,11.59
2023-05-03T07:07:57.282Z,11.15
2023-05-03T07:08:59.468Z,11.23
2023-05-03T07:10:01.973Z,11.14
2023-05-03T07:11:04.594Z,11.58
2023-05-03T07:12:06.864Z,11.35
2023-05-03T07:13:09.088Z,11.53
2023-05-03T07:14:11.378Z,11.50
2023-05-03T07:15:14.860Z,11.42
2023-05-03T07:16:17.694Z,11.63
2023-05-03T07:17:22.101Z,11.75
2023-05-03T07:18:27.110Z,11.61
2023-05-03T07:19:30.032Z,11.90
2023-05-03T07:20:32.362Z,11.67
2023-05-03T07:21:35.183Z,11.34
2023-05-03T07:22:37.386Z,11.94
2023-05-03T07:23:40.484Z,11.47
2023-05-03T07:24:42.875Z,12.01
2023-05-03T07:25:45.883Z,12.11
2023-05-03T07:26:49.182Z,11.91
2023-05-03T07:27:51.468Z,12.02
2023-05-03T07:28:53.916Z,11.74
2023-05-03T07:29:56.175Z,11.95
2023-05-03T07:30:59.491Z,11.93
2023-05-03T07:32:01.728Z,12.24
2023-05-03T07:33:04.047Z,11.96
2023-05-03T07:34:06.634Z,11.50
2023-05-03T07:35:09.375Z,11.40
2023-05-03T07:36:11.651Z,11.64
2023-05-03T07:37:14.500Z,12.21
2023-05-03T07:38:17.360Z,12.32
2023-05-03T07:39:19.577Z,11.82
2023-05-03T07:40:21.783Z,11.72
2023-05-03T07:41:24.323Z,11.92
2023-05-03T07:42:26.684Z,12.02
2023-05-03T07:43:29.290Z,12.29
2023-05-03T07:44:31.638Z,12.30
2023-05-03T07:45:33.950Z,12.44
2023-05-03T07:46:36.649Z,12.42
2023-05-03T07:47:39.980Z,12.78
2023-05-03T07:48:42.172Z,13.09
2023-05-03T07:49:44.677Z,12.88
2023-05-03T07:50:46.962Z,12.76
2023-05-03T07:51:49.146Z,12.99
2023-05-03T07:52:51.771Z,12.95
2023-05-03T07:53:54.293Z,12.74
2023-05-03T07:54:56.459Z,12.38
2023-05-03T07:55:58.652Z,12.65
2023-05-03T07:57:00.971Z,12.84
2023-05-03T07:58:03.543Z,12.85
2023-05-03T07:59:10.114Z,12.46
2023-05-03T08:00:13.476Z,12.65
2023-05-03T08:01:15.904Z,12.87
2023-05-03T08:02:18.419Z,12.78
2023-05-03T08:03:21.436Z,13.53
2023-05-03T08:04:25.411Z,13.42
2023-05-03T08:05:28.429Z,13.29
2023-05-03T08:06:31.714Z,12.97
2023-05-03T08:07:34.072Z,12.79
2023-05-03T08:08:38.411Z,12.54
2023-05-03T08:09:41.702Z,12.75
2023-05-03T08:10:43.980Z,12.82
2023-05-03T08:11:46.334Z,12.95
2023-05-03T08:12:48.863Z,13.61
2023-05-03T08:13:51.059Z,14.09
2023-05-03T08:14:54.241Z,13.87
2023-05-03T08:15:56.449Z,14.04
2023-05-03T08:16:59.541Z,14.16
2023-05-03T08:18:02.043Z,13.57
2023-05-03T08:19:04.781Z,13.49
2023-05-03T08:20:08.345Z,13.33
2023-05-03T08:21:12.268Z,13.10
2023-05-03T08:22:14.856Z,13.33
2023-05-03T08:23:17.708Z,13.83
2023-05-03T08:24:20.751Z,13.58
2023-05-03T08:25:24.909Z,14.02
2023-05-03T08:26:28.580Z,14.06
2023-05-03T08:27:31.789Z,13.62
2023-05-03T08:28:34.284Z,13.33
2023-05-03T08:29:39.618Z,14.03
2023-05-03T08:30:41.933Z,14.15
2023-05-03T08:31:44.122Z,14.12
2023-05-03T08:32:46.539Z,14.71
2023-05-03T08:33:48.760Z,14.48
2023-05-03T08:34:52.813Z,14.45
2023-05-03T08:35:55.131Z,14.92
2023-05-03T08:36:57.444Z,14.89
2023-05-03T08:37:59.620Z,15.11
2023-05-03T08:39:06.323Z,14.73
2023-05-03T08:40:11.890Z,14.57
2023-05-03T08:41:30.464Z,14.13
2023-05-03T08:42:33.668Z,14.77
2023-05-03T08:43:40.911Z,14.77
2023-05-03T08:44:48.454Z,14.39
2023-05-03T08:45:51.299Z,14.76
2023-05-03T08:46:53.486Z,15.00
2023-05-03T08:47:55.763Z,14.59
2023-05-03T08:48:59.825Z,15.45
2023-05-03T08:50:05.011Z,15.93
2023-05-03T08:51:09.929Z,16.29
2023-05-03T08:52:14.749Z,15.93
2023-05-03T08:53:16.980Z,15.85
2023-05-03T08:54:21.283Z,15.04
2023-05-03T08:55:23.493Z,14.86
2023-05-03T08:56:41.681Z,14.99
2023-05-03T08:57:43.828Z,15.53
2023-05-03T08:58:46.161Z,15.44
2023-05-03T09:00:01.623Z,14.83
2023-05-03T09:01:06.232Z,15.34
2023-05-03T09:02:09.614Z,14.83
2023-05-03T09:03:12.321Z,15.60
2023-05-03T09:04:15.028Z,15.86
2023-05-03T09:05:17.334Z,15.66
2023-05-03T09:06:27.108Z,15.16
2023-05-03T09:07:29.365Z,15.34
2023-05-03T09:08:43.484Z,15.65
2023-05-03T09:09:49.008Z,16.15
2023-05-03T09:10:51.258Z,15.93
2023-05-03T09:11:53.423Z,15.53
2023-05-03T09:13:03.395Z,15.56
2023-05-03T09:14:16.457Z,15.31
2023-05-03T09:15:22.190Z,15.16
2023-05-03T09:16:27.395Z,15.40
2023-05-03T09:17:29.710Z,15.45
2023-05-03T09:18:31.872Z,15.86
2023-05-03T09:19:50.480Z,15.34
2023-05-03T09:20:53.252Z,15.22
2023-05-03T09:22:06.747Z,15.52
2023-05-03T09:23:09.781Z,15.97
2023-05-03T09:24:17.470Z,15.94
2023-05-03T09:25:19.739Z,15.53
2023-05-03T09:26:29.849Z,15.69
2023-05-03T09:27:32.052Z,15.58
2023-05-03T09:28:42.089Z,15.69
2023-05-03T09:29:44.364Z,16.16
2023-05-03T09:30:47.591Z,16.65
2023-05-03T09:32:02.681Z,17.21
2023-05-03T09:33:05.038Z,18.01
2023-05-03T09:34:22.447Z,18.41
2023-05-03T09:35:24.812Z,18.17
2023-05-03T09:36:29.981Z,16.95
2023-05-03T09:37:38.685Z,16.68
2023-05-03T09:38:41.397Z,17.41
2023-05-03T09:39:45.779Z,17.26
2023-05-03T09:40:48.254Z,16.33
2023-05-03T09:41:50.584Z,16.11
2023-05-03T09:43:07.278Z,15.94
2023-05-03T09:44:09.614Z,15.87
2023-05-03T09:45:11.852Z,15.78
2023-05-03T09:46:14.382Z,15.81
2023-05-03T09:47:16.951Z,16.27
2023-05-03T09:48:23.325Z,16.15
2023-05-03T09:49:25.565Z,16.17
2023-05-03T09:50:27.784Z,16.60
2023-05-03T09:51:32.265Z,16.33
2023-05-03T09:52:34.855Z,16.59
2023-05-03T09:53:38.491Z,16.89
2023-05-03T09:54:42.174Z,16.26
2023-05-03T09:55:44.451Z,16.67
2023-05-03T09:56:47.540Z,17.09
2023-05-03T09:57:54.962Z,17.06
2023-05-03T09:58:57.748Z,17.27
2023-05-03T10:00:00.023Z,17.49
2023-05-03T10:01:02.735Z,17.09
2023-05-03T10:02:07.797Z,16.98
2023-05-03T10:03:12.171Z,16.92
2023-05-03T10:04:20.508Z,17.67
2023-05-03T10:05:23.285Z,17.16
2023-05-03T10:06:28.587Z,16.93
2023-05-03T10:07:32.253Z,17.60
2023-05-03T10:08:40.998Z,18.28
2023-05-03T10:09:45.376Z,17.36
2023-05-03T10:10:51.901Z,16.58
2023-05-03T10:11:55.029Z,17.06
2023-05-03T10:12:57.973Z,16.80
2023-05-03T10:14:00.489Z,16.93
2023-05-03T10:15:07.676Z,16.54
2023-05-03T10:16:14.187Z,16.69
2023-05-03T10:17:32.054Z,16.61
2023-05-03T10:18:52.139Z,16.78
2023-05-03T10:19:57.560Z,16.50
2023-05-03T10:21:09.548Z,16.99
2023-05-03T10:22:11.982Z,17.50
2023-05-03T10:23:14.276Z,17.54
2023-05-03T10:24:17.299Z,17.03
2023-05-03T10:25:19.505Z,17.13
2023-05-03T10:26:22.491Z,17.10
2023-05-03T10:27:25.648Z,16.89
2023-05-03T10:28:27.835Z,17.33
2023-05-03T10:29:36.033Z,18.16
2023-05-03T10:30:40.161Z,19.13
2023-05-03T10:31:48.655Z,19.12
2023-05-03T10:32:50.976Z,18.42
2023-05-03T10:33:53.185Z,17.96
2023-05-03T10:35:23.095Z,18.69
2023-05-03T10:36:27.295Z,19.87
2023-05-03T10:37:36.137Z,18.49
2023-05-03T10:38:38.575Z,18.40
2023-05-03T10:39:46.862Z,18.79
2023-05-03T10:40:49.045Z,19.17
2023-05-03T10:42:03.825Z,18.43
2023-05-03T10:43:06.070Z,17.77
2023-05-03T10:44:28.640Z,17.55
2023-05-03T10:45:31.675Z,17.84
2023-05-03T10:46:34.364Z,18.09
2023-05-03T10:47:36.707Z,18.21
2023-05-03T10:48:38.906Z,17.64
2023-05-03T10:49:41.201Z,17.44
2023-05-03T10:50:43.533Z,17.52
2023-05-03T10:51:45.946Z,17.26
2023-05-03T10:52:48.603Z,17.89
2023-05-03T10:53:51.431Z,18.71
2023-05-03T10:54:54.313Z,18.20
2023-05-03T10:56:12.658Z,18.53
2023-05-03T10:57:15.356Z,18.01
2023-05-03T10:58:17.859Z,18.20
2023-05-03T10:59:20.913Z,17.66
2023-05-03T11:00:41.346Z,17.31
2023-05-03T11:01:46.410Z,17.47
2023-05-03T11:03:12.759Z,17.72
2023-05-03T11:04:38.281Z,17.29
2023-05-03T11:05:40.553Z,17.84
2023-05-03T11:06:42.742Z,17.52
2023-05-03T11:07:44.970Z,17.64
2023-05-03T11:08:48.612Z,18.43
2023-05-03T11:09:50.844Z,18.37
2023-05-03T11:11:00.531Z,17.43
2023-05-03T11:12:07.318Z,17.84
2023-05-03T11:13:09.599Z,17.84
2023-05-03T11:14:13.536Z,17.91
2023-05-03T11:15:18.990Z,17.84
2023-05-03T11:16:21.507Z,17.87
2023-05-03T11:17:23.754Z,18.26
2023-05-03T11:18:27.491Z,18.30
2023-05-03T11:19:29.812Z,18.63
2023-05-03T11:20:32.070Z,19.31
2023-05-03T11:21:34.647Z,19.82
2023-05-03T11:22:37.738Z,19.50
2023-05-03T11:23:41.453Z,18.64
2023-05-03T11:24:43.610Z,18.50
2023-05-03T11:25:45.989Z,19.41
2023-05-03T11:26:48.859Z,19.81
2023-05-03T11:27:51.065Z,19.32
2023-05-03T11:28:54.124Z,19.05
2023-05-03T11:29:58.391Z,19.57
2023-05-03T11:31:02.067Z,18.72
2023-05-03T11:32:04.521Z,17.96
2023-05-03T11:33:06.855Z,18.07
2023-05-03T11:34:11.120Z,18.13
2023-05-03T11:35:15.197Z,18.95
2023-05-03T11:36:17.546Z,18.78
2023-05-03T11:37:19.802Z,18.40
2023-05-03T11:38:22.037Z,18.01
2023-05-03T11:39:24.273Z,18.28
2023-05-03T11:40:26.766Z,18.52
2023-05-03T11:41:28.924Z,18.63
2023-05-03T11:42:31.286Z,19.06
2023-05-03T11:43:33.391Z,18.71
2023-05-03T11:44:37.580Z,19.32
2023-05-03T11:45:45.349Z,19.78
2023-05-03T11:46:48.539Z,20.12
2023-05-03T11:47:52.039Z,19.04
2023-05-03T11:48:54.362Z,18.24
2023-05-03T11:50:00.220Z,18.33
2023-05-03T11:51:07.309Z,18.44
2023-05-03T11:52:09.556Z,19.02
2023-05-03T11:53:15.647Z,20.07
2023-05-03T11:54:25.467Z,20.62
2023-05-03T11:55:30.410Z,19.60
2023-05-03T11:56:33.232Z,19.36
2023-05-03T11:57:37.268Z,19.45
2023-05-03T11:59:00.622Z,19.71
2023-05-03T12:00:21.923Z,19.10
2023-05-03T12:01:26.132Z,19.29
2023-05-03T12:02:30.344Z,19.14
2023-05-03T12:03:33.593Z,18.75
2023-05-03T12:04:41.489Z,18.64
2023-05-03T12:05:44.764Z,19.29
2023-05-03T12:06:52.677Z,18.86
2023-05-03T12:07:56.921Z,18.63
2023-05-03T12:09:03.946Z,18.45
2023-05-03T12:10:23.812Z,18.66
2023-05-03T12:11:31.498Z,18.64
2023-05-03T12:12:37.391Z,19.14
2023-05-03T12:13:44.117Z,18.91
2023-05-03T12:15:04.150Z,19.63
2023-05-03T12:16:13.726Z,20.09
2023-05-03T12:17:34.051Z,20.38
2023-05-03T12:18:55.911Z,19.91
2023-05-03T12:20:42.736Z,19.28
2023-05-03T12:21:54.137Z,18.71
2023-05-03T12:23:04.451Z,18.70
2023-05-03T12:24:09.201Z,19.26
2023-05-03T12:25:15.399Z,19.42
2023-05-03T12:26:22.066Z,19.29
2023-05-03T12:27:24.348Z,18.86
2023-05-03T12:28:26.783Z,18.36
2023-05-03T12:29:34.188Z,18.47
2023-05-03T12:30:40.043Z,18.98
2023-05-03T12:31:44.431Z,19.44
2023-05-03T12:32:46.932Z,19.37
2023-05-03T12:34:06.132Z,18.85
2023-05-03T12:35:14.293Z,19.94
2023-05-03T12:36:18.431Z,20.29
2023-05-03T12:37:27.097Z,20.48
2023-05-03T12:38:31.058Z,20.45
2023-05-03T12:39:34.136Z,20.19
2023-05-03T12:40:36.889Z,19.34
2023-05-03T12:42:44.646Z,18.42
2023-05-03T12:43:47.198Z,18.90
2023-05-03T12:44:50.779Z,18.89
2023-05-03T12:47:09.574Z,19.72
2023-05-03T12:48:13.082Z,19.14
2023-05-03T12:49:15.988Z,18.60
2023-05-03T12:50:19.157Z,18.40
2023-05-03T12:51:26.026Z,18.90
2023-05-03T12:53:39.005Z,20.00
2023-05-03T12:54:42.415Z,20.35
2023-05-03T12:55:50.682Z,20.12
2023-05-03T12:56:55.472Z,19.52
2023-05-03T12:58:26.807Z,19.16
2023-05-03T12:59:40.082Z,19.21
2023-05-03T13:00:52.912Z,19.10
2023-05-03T13:03:14.740Z,19.21
2023-05-03T13:03:32.503Z,19.08
2023-05-03T13:04:56.775Z,18.99
2023-05-03T13:05:58.397Z,19.08
2023-05-03T13:07:01.241Z,18.65
2023-05-03T13:08:09.425Z,18.05
2023-05-03T13:09:19.260Z,17.78
2023-05-03T13:10:23.114Z,18.00
2023-05-03T13:11:26.186Z,18.64
2023-05-03T13:12:28.755Z,18.78
2023-05-03T13:13:31.658Z,18.82
2023-05-03T13:14:33.852Z,19.05
2023-05-03T13:15:36.656Z,19.44
2023-05-03T13:16:40.098Z,18.91
2023-05-03T13:17:44.012Z,19.17
2023-05-03T13:18:47.950Z,18.88
2023-05-03T13:19:51.321Z,19.24
2023-05-03T13:20:53.743Z,19.57
2023-05-03T13:21:55.961Z,19.83
2023-05-03T13:22:59.367Z,19.96
2023-05-03T13:24:01.517Z,19.61
2023-05-03T13:25:04.287Z,20.32
2023-05-03T13:26:06.909Z,20.89
2023-05-03T13:27:11.313Z,21.04
2023-05-03T13:28:13.685Z,20.04
2023-05-03T13:29:16.127Z,20.02
2023-05-03T13:30:19.494Z,20.02
2023-05-03T13:31:24.118Z,19.93
2023-05-03T13:32:26.419Z,19.64
2023-05-03T13:33:29.430Z,19.61
2023-05-03T13:34:32.005Z,19.70
2023-05-03T13:35:34.190Z,19.73
2023-05-03T13:36:36.838Z,19.40
2023-05-03T13:37:39.511Z,19.59
2023-05-03T13:38:44.553Z,20.00
2023-05-03T13:39:47.003Z,20.59
2023-05-03T13:40:49.187Z,19.66
2023-05-03T13:41:51.476Z,19.43
2023-05-03T13:42:53.631Z,19.50
2023-05-03T13:43:55.912Z,19.54
2023-05-03T13:44:58.598Z,19.36
2023-05-03T13:46:02.053Z,19.65
2023-05-03T13:47:04.485Z,19.56
2023-05-03T13:48:18.033Z,19.56
2023-05-03T13:49:21.469Z,19.39
2023-05-03T13:50:23.674Z,18.92
2023-05-03T13:51:27.003Z,18.66
2023-05-03T13:52:29.195Z,18.97
2023-05-03T13:53:31.352Z,19.16
2023-05-03T13:54:33.559Z,19.15
2023-05-03T13:55:35.840Z,19.34
2023-05-03T13:56:38.305Z,19.06
2023-05-03T13:57:40.882Z,19.07
2023-05-03T13:58:43.234Z,18.82
2023-05-03T13:59:45.618Z,18.79
2023-05-03T14:00:47.761Z,18.78
2023-05-03T14:01:50.486Z,18.99
2023-05-03T14:02:53.201Z,18.85
2023-05-03T14:03:56.077Z,18.95
2023-05-03T14:04:58.320Z,19.12
2023-05-03T14:06:00.808Z,18.75